Latest Weather Observations for Morawa Airport

IDW60801

Issued at 8:32 pm WST Sunday 14 February 2016 (issued every 30 minutes, with the page automatically refreshed every 10 minutes)

About weather observations | Map of weather stations | Latest weather observations for WA | Other Formats
Station Details ID: 008296 Name: MORAWA AIRPORT Lat: -29.20 Lon: 116.02 Height: 271.4 m
Data from the previous 72 hours. | See also: Recent months at Morawa Airport
Date/Time
WST
Temp
°C
App
Temp
°C
Dew
Point
Rel
Hum
%
Delta-T
°C
Wind Press
QNH
hPa
Press
MSL
hPa
Rain
since 9 am
mm
Dir
 
Spd
km/h
Gust
km/h
Spd
kts
Gust
kts
14/08:30pm 30.2 25.9 10.7 30 11.3 SSE 24 33 13 18 1015.5 1013.7 0.0
14/08:00pm 30.6 26.2 10.5 29 11.6 SSE 24 33 13 18 1015.3 1013.4 0.0
14/07:30pm 31.2 26.5 10.5 28 12.0 SSE 26 41 14 22 1014.8 1012.9 0.0
14/07:00pm 32.1 26.9 10.2 26 12.7 SSE 28 39 15 21 1014.5 1012.6 0.0
14/06:30pm 33.2 28.1 10.5 25 13.3 SSE 28 35 15 19 1014.2 1012.3 0.0
14/06:00pm 34.2 29.1 10.7 24 13.8 SSE 28 41 15 22 1013.9 1012.0 0.0
14/05:30pm 34.9 29.4 10.7 23 14.3 SSE 30 41 16 22 1013.6 1011.7 0.0
14/05:00pm 35.6 30.5 10.6 22 14.8 SE 28 39 15 21 1013.5 1011.6 0.0
14/04:30pm 35.5 31.1 10.5 22 14.8 SE 24 35 13 19 1013.5 1011.6 0.0
14/04:00pm 36.2 31.4 10.4 21 15.3 SE 26 37 14 20 1013.7 1011.8 0.0
14/03:30pm 36.0 32.3 10.2 21 15.2 ESE 20 33 11 18 1013.9 1012.0 0.0
14/03:00pm 35.4 31.0 10.4 22 14.7 SE 24 33 13 18 1014.2 1012.3 0.0
14/02:30pm 34.7 30.9 9.9 22 14.5 SE 20 32 11 17 1014.4 1012.5 0.0
14/02:00pm 34.6 30.2 10.4 23 14.2 SE 24 35 13 19 1014.5 1012.6 0.0
14/01:30pm 34.4 30.4 10.3 23 14.1 ESE 22 33 12 18 1014.7 1012.8 0.0
14/01:00pm 33.7 29.7 10.3 24 13.7 ESE 22 33 12 18 1015.1 1013.2 0.0
14/12:30pm 33.2 29.8 10.5 25 13.3 ESE 19 32 10 17 1015.5 1013.7 0.0
14/12:00pm 31.7 28.1 10.4 27 12.3 ESE 20 30 11 16 1016.1 1014.3 0.0
14/11:30am 31.0 27.0 10.4 28 11.9 ESE 22 35 12 19 1016.5 1014.7 0.0
14/11:00am 30.3 26.6 10.3 29 11.5 ESE 20 32 11 17 1016.9 1015.1 0.0
14/10:30am 29.3 25.7 10.4 31 10.8 ESE 20 30 11 16 1016.9 1015.1 0.0
14/10:00am 27.3 22.3 9.6 33 9.9 ESE 26 37 14 20 1017.6 1015.7 0.0
14/09:30am 26.0 20.7 9.8 36 9.1 ESE 28 39 15 21 1017.7 1015.8 0.0
14/09:00am 24.2 18.0 9.4 39 8.1 ESE 32 41 17 22 1018.0 1016.1 0.0
14/08:30am 23.1 16.7 9.5 42 7.5 SE 33 43 18 23 1018.3 1016.4 0.0
14/08:00am 22.0 15.6 9.2 44 6.9 SE 33 43 18 23 1018.1 1016.2 0.0
14/07:30am 21.4 15.1 9.0 45 6.7 SE 32 44 17 24 1018.1 1016.2 0.0
14/07:00am 20.6 15.8 8.9 47 6.2 SE 24 33 13 18 1017.9 1016.0 0.0
14/06:30am 19.9 14.7 8.9 49 5.9 SE 26 33 14 18 1017.2 1015.4 0.0
14/06:00am 19.7 14.5 8.7 49 5.8 SE 26 35 14 19 1016.7 1014.9 0.0
14/05:30am 20.2 15.2 8.2 46 6.3 SE 24 33 13 18 1016.4 1014.6 0.0
14/05:00am 20.8 16.2 8.1 44 6.7 SE 22 32 12 17 1016.0 1014.2 0.0
14/04:30am 21.4 16.3 7.6 41 7.2 SSE 24 33 13 18 1015.9 1014.1 0.0
14/04:00am 21.9 16.3 7.3 39 7.6 SE 26 37 14 20 1015.6 1013.8 0.0
14/03:30am 22.6 17.3 6.8 36 8.2 SE 24 35 13 19 1015.4 1013.6 0.0
14/03:00am 23.2 18.5 6.1 33 8.8 SE 20 32 11 17 1015.4 1013.6 0.0
14/02:30am 23.7 18.1 5.6 31 9.3 SE 24 35 13 19 1015.2 1013.3 0.0
14/02:00am 24.2 18.4 4.6 28 9.9 SE 24 35 13 19 1015.1 1013.2 0.0
14/01:30am 24.7 19.2 3.9 26 10.4 SSE 22 35 12 19 1015.2 1013.3 0.0
14/01:00am 25.1 19.2 3.7 25 10.7 SSE 24 37 13 20 1015.4 1013.6 0.0
14/12:30am 25.2 20.0 3.8 25 10.7 SSE 20 32 11 17 1015.6 1013.8 0.0
14/12:00am 25.6 20.0 3.6 24 11.0 SSE 22 32 12 17 1015.7 1013.9 0.0
 
Date/Time
WST
Temp
°C
App
Temp
°C
Dew
Point
Rel
Hum
%
Delta-T
°C
Wind Press
QNH
hPa
Press
MSL
hPa
Rain
since 9 am
mm
Dir
 
Spd
km/h
Gust
km/h
Spd
kts
Gust
kts
13/11:30pm 25.9 20.4 3.8 24 11.1 SSE 22 33 12 18 1015.9 1014.1 0.0
13/11:00pm 26.5 19.8 3.7 23 11.5 SSE 28 39 15 21 1016.2 1014.4 0.0
13/10:30pm 27.1 21.3 4.2 23 11.7 SSE 24 39 13 21 1016.3 1014.5 0.0
13/10:00pm 27.6 21.6 5.2 24 11.7 SSE 26 37 14 20 1016.2 1014.4 0.0
13/09:30pm 28.4 22.3 6.5 25 11.7 SSE 28 39 15 21 1016.2 1014.4 0.0
13/09:00pm 29.1 24.1 8.2 27 11.5 SSE 24 32 13 17 1016.0 1014.2 0.0
13/08:30pm 29.9 26.3 10.5 30 11.2 SSE 20 33 11 18 1015.8 1014.0 0.0
13/08:00pm 30.8 26.5 10.7 29 11.7 SSE 24 32 13 17 1015.5 1013.7 0.0
13/07:30pm 31.4 26.7 10.7 28 12.0 SSE 26 35 14 19 1015.1 1013.2 0.0
13/07:00pm 32.3 27.7 10.9 27 12.5 SSE 26 39 14 21 1014.7 1012.8 0.0
13/06:30pm 33.3 28.6 10.6 25 13.3 SE 26 35 14 19 1014.3 1012.4 0.0
13/06:00pm 34.2 29.0 10.1 23 14.1 SSE 28 35 15 19 1013.8 1011.9 0.0
13/05:30pm 34.9 29.6 10.0 22 14.6 SSE 28 39 15 21 1013.6 1011.7 0.0
13/05:00pm 35.7 30.8 10.0 21 15.1 SE 26 35 14 19 1013.3 1011.5 0.0
13/04:30pm 36.2 31.8 10.4 21 15.3 SE 24 39 13 21 1013.3 1011.5 0.0
13/04:00pm 35.7 30.4 10.0 21 15.1 SE 28 37 15 20 1013.6 1011.7 0.0
13/03:30pm 35.4 30.2 10.4 22 14.7 SE 28 43 15 23 1013.9 1012.0 0.0
13/03:00pm 35.5 30.4 10.5 22 14.8 SE 28 43 15 23 1014.3 1012.4 0.0
13/02:30pm 34.9 30.8 11.3 24 14.1 SE 24 35 13 19 1014.6 1012.7 0.0
13/02:00pm 34.5 29.9 11.0 24 13.9 SSE 26 37 14 20 1014.9 1013.0 0.0
13/01:30pm 34.3 29.8 11.4 25 13.6 SE 26 35 14 19 1015.2 1013.3 0.0
13/01:00pm 33.0 28.5 11.5 27 12.7 SE 26 33 14 18 1015.6 1013.8 0.0
13/12:30pm 32.7 28.7 11.8 28 12.4 SE 24 35 13 19 1016.1 1014.3 0.0
13/12:00pm 31.9 27.3 12.2 30 11.7 SE 28 37 15 20 1016.5 1014.7 0.0
13/11:30am 31.1 26.4 12.0 31 11.3 SSE 28 37 15 20 1016.9 1015.1 0.0
13/11:20am 30.5 25.7 11.5 31 11.2 SE 28 48 15 26 1017.0 1015.2 0.0
13/11:00am 29.8 24.9 11.3 32 10.8 SE 28 41 15 22 1017.4 1015.5 0.0
13/10:30am 29.7 24.4 11.2 31 10.8 SE 30 41 16 22 1017.6 1015.7 0.0
13/10:00am 28.6 23.7 11.2 34 10.1 SE 28 41 15 22 1017.8 1015.9 0.0
13/09:30am 27.5 21.7 10.7 35 9.6 SE 32 43 17 23 1018.0 1016.1 0.0
13/09:00am 27.4 22.0 11.0 36 9.4 SE 30 39 16 21 1018.0 1016.1 0.0
13/08:30am 25.9 20.5 10.9 39 8.5 SE 30 41 16 22 1017.9 1016.0 0.0
13/08:00am 25.0 20.7 11.9 44 7.5 SE 26 35 14 19 1018.1 1016.2 0.0
13/07:30am 24.2 19.9 11.9 46 7.1 SE 26 37 14 20 1018.1 1016.2 0.0
13/07:00am 23.5 20.0 12.2 49 6.5 SE 22 32 12 17 1017.7 1015.8 0.0
13/06:30am 22.6 20.3 13.1 55 5.5 SSE 17 22 9 12 1017.5 1015.6 0.0
13/06:00am 21.7 19.4 14.1 62 4.5 SSE 19 24 10 13 1016.7 1014.9 0.0
13/05:30am 21.5 19.8 14.6 65 4.1 SSE 17 24 9 13 1016.4 1014.6 0.0
13/05:00am 21.1 19.7 15.6 71 3.3 S 17 24 9 13 1016.3 1014.5 0.0
13/04:30am 21.0 18.9 16.2 74 2.9 S 22 30 12 16 1015.9 1014.1 0.0
13/04:00am 21.0 19.5 16.2 74 2.9 S 19 24 10 13 1016.3 1014.5 0.0
13/03:30am 20.8 20.1 16.4 76 2.7 S 15 20 8 11 1016.4 1014.6 0.0
13/03:00am 20.7 20.0 16.3 76 2.7 S 15 20 8 11 1016.2 1014.4 0.0
13/02:30am 20.9 19.3 16.1 74 2.9 S 19 26 10 14 1016.0 1014.2 0.0
13/02:00am 21.1 19.3 15.6 71 3.3 S 19 26 10 14 1015.9 1014.1 0.0
13/01:30am 21.5 19.9 14.9 66 3.9 SSW 17 24 9 13 1016.1 1014.3 0.0
13/01:00am 22.0 20.4 13.9 60 4.8 SSW 15 22 8 12 1016.1 1014.3 0.0
13/12:30am 22.4 19.8 13.2 56 5.4 SSW 19 26 10 14 1016.0 1014.2 0.0
13/12:00am 22.9 19.6 12.8 53 5.9 S 22 32 12 17 1016.1 1014.3 0.0
 
Date/Time
WST
Temp
°C
App
Temp
°C
Dew
Point
Rel
Hum
%
Delta-T
°C
Wind Press
QNH
hPa
Press
MSL
hPa
Rain
since 9 am
mm
Dir
 
Spd
km/h
Gust
km/h
Spd
kts
Gust
kts
12/11:30pm 23.5 20.4 12.2 49 6.5 S 20 30 11 16 1016.2 1014.4 0.0
12/11:00pm 24.1 21.1 11.8 46 7.0 SSW 19 28 10 15 1016.2 1014.4 0.0
12/10:30pm 25.2 21.5 11.4 42 7.9 S 22 33 12 18 1016.0 1014.2 0.0
12/10:00pm 26.4 22.3 10.1 36 9.2 S 22 32 12 17 1016.1 1014.3 0.0
12/09:30pm 27.5 23.6 9.3 32 10.2 SSW 20 30 11 16 1015.9 1014.1 0.0
12/09:00pm 28.8 23.9 8.5 28 11.3 SSW 24 33 13 18 1015.6 1013.8 0.0
12/08:30pm 29.8 25.4 8.8 27 11.8 SSW 22 30 12 16 1015.3 1013.4 0.0
12/08:00pm 30.7 25.5 9.0 26 12.2 SSW 26 35 14 19 1015.0 1013.1 0.0
12/07:30pm 31.8 26.7 10.5 27 12.4 SSW 28 41 15 22 1014.6 1012.7 0.0
12/07:00pm 33.4 26.8 10.1 24 13.5 SSW 35 48 19 26 1014.0 1012.1 0.0
12/06:30pm 35.5 29.8 9.8 21 15.0 SSW 30 43 16 23 1013.5 1011.6 0.0
12/06:00pm 37.8 33.0 4.7 13 18.1 S 19 26 10 14 1013.1 1011.3 0.0
12/05:30pm 38.2 32.9 5.0 13 18.3 S 22 32 12 17 1012.9 1011.1 0.0
12/05:00pm 38.9 33.6 6.6 14 18.3 SSW 24 35 13 19 1012.6 1010.8 0.0
12/04:30pm 38.8 33.3 7.5 15 17.9 SSW 26 39 14 21 1012.5 1010.7 0.0
12/04:00pm 39.5 35.0 7.1 14 18.5 SSW 20 30 11 16 1012.4 1010.6 0.0
12/03:30pm 39.3 34.8 6.9 14 18.4 S 20 35 11 19 1012.5 1010.7 0.0
12/03:00pm 39.7 34.5 7.2 14 18.6 S 24 39 13 21 1012.6 1010.8 0.0
12/02:30pm 39.3 34.4 6.9 14 18.4 S 22 37 12 20 1013.0 1011.2 0.0
12/02:00pm 39.7 34.5 7.2 14 18.6 S 24 39 13 21 1013.3 1011.5 0.0
12/01:30pm 38.8 34.0 7.5 15 17.9 SSE 22 35 12 19 1013.7 1011.8 0.0
12/01:00pm 38.0 33.7 7.8 16 17.3 S 20 32 11 17 1014.1 1012.2 0.0
12/12:30pm 37.4 33.4 9.1 18 16.5 SSW 20 28 11 15 1014.4 1012.5 0.0
12/12:00pm 36.3 33.3 10.5 21 15.3 SSW 17 32 9 17 1014.8 1012.9 0.0
12/11:30am 35.8 32.5 10.8 22 14.8 S 19 24 10 13 1015.3 1013.4 0.0
12/11:00am 34.6 31.4 11.1 24 13.9 S 19 28 10 15 1015.5 1013.7 0.0
12/10:30am 33.3 31.1 13.4 30 12.2 S 17 24 9 13 1015.9 1014.1 0.0
12/10:00am 31.8 29.3 13.5 32 11.1 S 19 26 10 14 1016.2 1014.4 0.0
12/09:30am 30.3 28.0 14.0 37 9.9 S 19 30 10 16 1016.3 1014.5 0.0
12/09:00am 27.9 26.5 16.5 50 7.1 S 19 26 10 14 1016.4 1014.6 0.0
12/08:30am 26.5 25.4 16.4 53 6.3 SSE 17 22 9 12 1016.5 1014.7 0.0
12/08:00am 24.3 23.1 17.1 64 4.5 S 19 22 10 12 1016.7 1014.9 0.0
12/07:30am 22.7 22.1 17.6 73 3.2 S 17 22 9 12 1016.4 1014.6 0.0
12/07:00am 21.0 21.4 18.2 84 1.8 SSW 13 20 7 11 1016.2 1014.4 0.0
12/06:30am 20.6 19.9 18.2 86 1.5 SSW 19 26 10 14 1016.1 1014.3 0.0
12/06:00am 20.9 20.3 17.5 81 2.1 SSW 17 20 9 11 1015.5 1013.7 0.0
12/05:30am 21.3 21.2 16.9 76 2.7 SSW 13 19 7 10 1015.2 1013.3 0.0
12/05:00am 21.8 21.4 16.1 70 3.5 SSW 13 17 7 9 1014.9 1013.0 0.0
12/04:30am 22.1 21.8 15.5 66 4.0 SSW 11 17 6 9 1015.0 1013.1 0.0
12/04:00am 22.7 22.2 15.0 61 4.6 SSW 11 17 6 9 1015.1 1013.2 0.0
12/03:30am 23.2 22.2 13.4 54 5.7 SSW 11 13 6 7 1014.6 1012.7 0.0
12/03:00am 23.9 21.8 11.3 45 7.2 SSW 13 19 7 10 1014.2 1012.3 0.0
12/02:30am 24.1 22.7 9.7 40 8.0 SSW 7 9 4 5 1014.3 1012.4 0.0
12/02:00am 24.6 22.3 9.0 37 8.5 S 11 17 6 9 1014.0 1012.1 0.0
12/01:30am 24.3 21.9 8.7 37 8.5 SSE 11 13 6 7 1014.0 1012.1 0.0
12/01:00am 25.9 23.0 8.0 32 9.7 S 13 15 7 8 1013.7 1011.8 0.0
12/12:30am 26.5 24.1 8.5 32 9.9 SSW 11 17 6 9 1014.0 1012.1 0.0
12/12:00am 26.9 24.2 8.8 32 10.0 SSW 13 17 7 9 1013.9 1012.0 0.0
 
Date/Time
WST
Temp
°C
App
Temp
°C
Dew
Point
Rel
Hum
%
Delta-T
°C
Wind Press
QNH
hPa
Press
MSL
hPa
Rain
since 9 am
mm
Dir
 
Spd
km/h
Gust
km/h
Spd
kts
Gust
kts
11/11:30pm 27.5 25.6 8.9 31 10.3 SW 9 13 5 7 1014.2 1012.3 0.0
11/11:00pm 28.4 25.4 9.2 30 10.8 SSW 15 19 8 10 1014.3 1012.4 0.0
11/10:30pm 29.0 26.3 10.2 31 10.7 SSW 15 20 8 11 1014.2 1012.3 0.0
11/10:00pm 29.9 27.2 10.5 30 11.2 SSW 15 19 8 10 1014.4 1012.5 0.0
11/09:30pm 30.9 27.9 10.8 29 11.7 SW 17 22 9 12 1014.1 1012.2 0.0
11/09:00pm 32.0 28.2 11.2 28 12.2 SSW 22 32 12 17 1013.7 1011.8 0.0

Other Formats:

Comma delimited format used in spreadsheet applications
http://www.bom.gov.au/fwo/IDW60801/IDW60801.94417.axf

JavaScript Object Notation format (JSON) in row-major order
http://www.bom.gov.au/fwo/IDW60801/IDW60801.94417.json